NCAR-RAP Real-Time Weather Data

Output produced by METARs form (10 April 2020  07:24 UTC)
found at http://weather.rap.ucar.edu/surface/
 
KROW 100651Z AUTO 19009KT 10SM CLR 14/04 A3002 RMK AO2 SLP116 T01390039 402670117 $
KROW 100551Z AUTO 19009KT 10SM CLR 15/04 A3000 RMK AO2 SLP113 T01500039 10250 20139 51014 $
KROW 100451Z AUTO 19008KT 10SM CLR 14/04 A3000 RMK AO2 SLP114 T01440039 $
KROW 100351Z AUTO 17008KT 10SM CLR 16/04 A2999 RMK AO2 SLP107 T01610044 $
KROW 100251Z 15009KT 10SM CLR 18/05 A2996 RMK AO2 SLP098 T01780050 53016 $
KROW 100151Z 15007KT 10SM CLR 19/05 A2992 RMK AO2 SLP088 T01940050 $
KROW 100051Z 15010KT 10SM CLR 23/04 A2991 RMK AO2 SLP080 T02330044 $
KROW 092351Z 16012KT 10SM CLR 25/03 A2991 RMK AO2 SLP075 T02500033 10267 20206 56014 $
KROW 092251Z 16013KT 10SM CLR 26/04 A2991 RMK AO2 SLP073 T02560039 $
KROW 092151Z 16014KT 10SM FEW120 26/04 A2993 RMK AO2 SLP079 T02610044 $
KROW 092051Z 15012KT 10SM FEW110 25/04 A2995 RMK AO2 SLP088 T02500044 58019
KROW 091951Z 15011KT 10SM SCT120 23/06 A2998 RMK AO2 SLP100 T02330061
KROW 091851Z VRB03KT 10SM FEW110 23/04 A2999 RMK AO2 SLP105 T02280044
KROW 091751Z 10004KT 10SM BKN110 21/05 A3002 RMK AO2 SLP112 T02060050 10206 20117 55001
KROW 091651Z 09006KT 10SM CLR 19/06 A3001 RMK AO2 SLP112 T01890061
KROW 091551Z 04006KT 10SM CLR 19/04 A3001 RMK AO2 SLP108 T01890044
KROW 091451Z 00000KT 10SM FEW120 17/03 A3002 RMK AO2 SLP114 T01670033 50015
KROW 091351Z 00000KT 10SM CLR 13/03 A3003 RMK AO2 SLP120 T01330033
KROW 091251Z 00000KT 10SM FEW120 13/02 A3000 RMK AO2 SLP106 T01280017
KROW 091151Z 34004KT 10SM CLR 14/02 A2997 RMK AO2 SLP092 T01390017 10194 20133 58003
KROW 091051Z AUTO 27003KT 10SM CLR 16/01 A2998 RMK AO2 SLP093 T01560011
KROW 090951Z AUTO 17005KT 10SM CLR 15/02 A2998 RMK AO2 SLP094 T01500017